Time;durP1;ratioP1;P1;durP2;ratioP2;P2;SDS_P1;SDS_P2;PMS_P1;PMS_P2;Temp;Humidity;BMP_temperature;BMP_pressure;BME280_temperature;BME280_humidity;BME280_pressure;Samples;Min_cycle;Max_cycle;Signal;HPM_P1;HPM_P2
2023/05/14 00:00:47;;;;;;;4.40;4.00;;;13.90;86.10;;;;;;5036139;28;20037;-62
2023/05/14 00:03:13;;;;;;;4.65;3.70;;;13.80;86.10;;;;;;5035724;28;20128;-61
2023/05/14 00:05:38;;;;;;;4.75;4.25;;;13.90;86.20;;;;;;5029411;28;20294;-61
2023/05/14 00:08:04;;;;;;;4.30;3.90;;;13.90;86.30;;;;;;5029854;28;20037;-61
2023/05/14 00:10:29;;;;;;;4.20;3.90;;;13.80;86.20;;;;;;5029446;28;20044;-60
2023/05/14 00:12:55;;;;;;;4.57;4.18;;;13.80;86.30;;;;;;5028721;28;20044;-61
2023/05/14 00:15:21;;;;;;;4.78;4.03;;;13.80;86.30;;;;;;5028788;28;20041;-60
2023/05/14 00:17:46;;;;;;;5.40;4.57;;;13.80;86.40;;;;;;5029300;28;20121;-61
2023/05/14 00:20:12;;;;;;;4.68;4.28;;;13.80;86.20;;;;;;5029789;28;20500;-60
2023/05/14 00:22:38;;;;;;;6.18;5.57;;;13.80;86.20;;;;;;5027888;28;20045;-61
2023/05/14 00:25:06;;;;;;;6.43;5.22;;;13.80;86.30;;;;;;5030559;28;20041;-60
2023/05/14 00:27:31;;;;;;;5.90;5.30;;;13.80;86.30;;;;;;5029793;28;20090;-61
2023/05/14 00:29:57;;;;;;;6.13;5.03;;;13.70;86.30;;;;;;5028848;28;20036;-61
2023/05/14 00:32:23;;;;;;;6.03;5.43;;;13.70;86.40;;;;;;5028608;28;20064;-61
2023/05/14 00:34:49;;;;;;;6.15;5.55;;;13.70;86.40;;;;;;5029532;28;20042;-61
2023/05/14 00:37:14;;;;;;;5.95;5.35;;;13.70;86.50;;;;;;5031550;28;20701;-62
2023/05/14 00:39:40;;;;;;;5.70;5.18;;;13.70;86.60;;;;;;5034813;28;20036;-62
2023/05/14 00:42:06;;;;;;;6.35;5.72;;;13.70;86.60;;;;;;5033447;28;20037;-62
2023/05/14 00:44:31;;;;;;;6.32;5.70;;;13.70;87.50;;;;;;5033896;28;20038;-61
2023/05/14 00:46:58;;;;;;;6.78;5.28;;;13.70;86.60;;;;;;5034581;28;20041;-61
2023/05/14 00:49:24;;;;;;;6.53;5.90;;;13.70;86.60;;;;;;5034108;28;20145;-61
2023/05/14 00:51:50;;;;;;;8.10;5.80;;;13.80;86.70;;;;;;5037870;28;20044;-61
2023/05/14 00:54:16;;;;;;;7.63;5.65;;;13.70;86.70;;;;;;5032696;28;20401;-61
2023/05/14 00:56:45;;;;;;;6.45;5.85;;;13.70;86.60;;;;;;5032586;28;20153;-62
2023/05/14 00:59:11;;;;;;;7.32;6.57;;;13.70;86.70;;;;;;5029712;28;20040;-61
2023/05/14 01:01:37;;;;;;;7.15;6.45;;;13.70;86.70;;;;;;5036316;28;20041;-61
2023/05/14 01:04:03;;;;;;;8.30;5.90;;;13.60;86.70;;;;;;5029848;28;20048;-61
2023/05/14 01:06:35;;;;;;;8.23;6.43;;;13.60;86.70;;;;;;5031613;28;20033;-61
2023/05/14 01:09:15;;;;;;;7.85;6.30;;;13.60;86.70;;;;;;5028978;28;20312;-60
2023/05/14 01:11:58;;;;;;;6.55;5.90;;;13.70;87.30;;;;;;5035686;28;20433;-61
2023/05/14 01:14:44;;;;;;;7.45;6.60;;;13.60;87.30;;;;;;5036315;28;20033;-61
2023/05/14 01:17:12;;;;;;;7.57;6.72;;;13.60;87.40;;;;;;5036800;28;20108;-62
2023/05/14 01:19:42;;;;;;;7.72;6.93;;;13.60;87.00;;;;;;5032921;28;20033;-61
2023/05/14 01:22:09;;;;;;;7.13;6.43;;;13.60;87.30;;;;;;5031881;28;20029;-62
2023/05/14 01:24:35;;;;;;;9.05;7.05;;;13.60;87.00;;;;;;5031596;28;20175;-61
2023/05/14 01:27:37;;;;;;;7.30;6.60;;;13.60;87.10;;;;;;5031245;28;20041;-61
2023/05/14 01:30:15;;;;;;;7.72;6.93;;;13.60;87.40;;;;;;5031963;28;20041;-61
2023/05/14 01:32:45;;;;;;;8.85;6.70;;;13.70;87.30;;;;;;5031005;28;20037;-62
2023/05/14 01:35:11;;;;;;;9.13;7.38;;;13.70;87.20;;;;;;5038763;28;20041;-62
2023/05/14 01:37:38;;;;;;;8.50;7.68;;;13.70;87.10;;;;;;5040133;28;20037;-61
2023/05/14 01:40:06;;;;;;;8.07;7.07;;;13.60;87.20;;;;;;5038686;28;20475;-61
2023/05/14 01:42:31;;;;;;;8.05;7.18;;;13.60;87.20;;;;;;5039123;28;20041;-62
2023/05/14 01:44:58;;;;;;;9.65;7.05;;;13.60;87.30;;;;;;5039688;28;20035;-62
2023/05/14 01:47:23;;;;;;;7.68;6.88;;;13.60;87.30;;;;;;5038860;28;20252;-62
2023/05/14 01:49:49;;;;;;;8.45;7.60;;;13.70;87.30;;;;;;5033060;28;20878;-60
2023/05/14 01:52:15;;;;;;;9.48;7.65;;;13.70;87.30;;;;;;5030977;28;20052;-61
2023/05/14 01:54:40;;;;;;;8.10;7.25;;;13.60;87.30;;;;;;5032380;28;20467;-62
2023/05/14 01:57:06;;;;;;;9.13;7.68;;;13.70;87.30;;;;;;5031670;28;20036;-62
2023/05/14 01:59:31;;;;;;;9.20;7.35;;;13.60;87.20;;;;;;5030990;28;20166;-62
2023/05/14 02:01:57;;;;;;;9.43;7.78;;;13.70;87.30;;;;;;5031459;28;21948;-62
2023/05/14 02:04:22;;;;;;;9.52;7.60;;;13.70;87.30;;;;;;5030201;28;20416;-62
2023/05/14 02:06:48;;;;;;;8.93;7.75;;;13.70;87.30;;;;;;5030477;28;20047;-62
2023/05/14 02:09:14;;;;;;;9.32;7.85;;;13.70;87.20;;;;;;5031628;28;20068;-62
2023/05/14 02:11:39;;;;;;;9.88;7.68;;;13.70;87.30;;;;;;5033918;28;20037;-61
2023/05/14 02:14:05;;;;;;;9.20;8.18;;;13.70;87.30;;;;;;5030241;28;20090;-61
2023/05/14 02:16:31;;;;;;;8.90;7.90;;;13.70;87.30;;;;;;5030883;28;20071;-62
2023/05/14 02:18:56;;;;;;;9.20;7.78;;;13.70;87.30;;;;;;5031777;28;20052;-62
2023/05/14 02:21:22;;;;;;;9.38;8.25;;;13.70;87.30;;;;;;5030932;28;20033;-61
2023/05/14 02:23:48;;;;;;;8.95;8.05;;;13.70;87.30;;;;;;5031172;28;20037;-62
2023/05/14 02:26:14;;;;;;;9.00;7.68;;;13.70;87.40;;;;;;5030910;28;20140;-62
2023/05/14 02:28:39;;;;;;;9.30;8.05;;;13.70;87.40;;;;;;5030619;28;20571;-61
2023/05/14 02:31:05;;;;;;;9.68;8.10;;;13.70;87.40;;;;;;5031013;28;20065;-62
2023/05/14 02:33:30;;;;;;;9.25;8.27;;;13.70;87.40;;;;;;5035904;28;20530;-61
2023/05/14 02:35:56;;;;;;;10.00;8.63;;;13.70;87.30;;;;;;5033905;28;20037;-59
2023/05/14 02:38:22;;;;;;;9.85;8.55;;;13.70;87.30;;;;;;5035558;28;20037;-61
2023/05/14 02:40:48;;;;;;;9.70;7.88;;;13.70;87.40;;;;;;5030415;28;20045;-62
2023/05/14 02:43:13;;;;;;;8.88;7.97;;;13.70;87.40;;;;;;5032694;28;20439;-62
2023/05/14 02:45:39;;;;;;;8.82;7.75;;;13.60;87.40;;;;;;5032300;28;20067;-61
2023/05/14 02:48:04;;;;;;;9.02;7.93;;;13.60;87.50;;;;;;5030959;28;20512;-61
2023/05/14 02:50:30;;;;;;;11.27;8.32;;;13.60;87.60;;;;;;5035452;28;20036;-61
2023/05/14 02:52:55;;;;;;;9.38;8.10;;;13.60;87.70;;;;;;5035521;28;20040;-60
2023/05/14 02:55:25;;;;;;;10.15;8.35;;;13.60;87.70;;;;;;5035179;28;20345;-60
2023/05/14 02:57:52;;;;;;;9.35;8.45;;;13.60;87.70;;;;;;5034972;28;20120;-61
2023/05/14 03:00:18;;;;;;;10.07;8.93;;;13.60;87.80;;;;;;5033219;28;20436;-61
2023/05/14 03:02:44;;;;;;;10.93;8.80;;;13.60;87.80;;;;;;5032783;28;20048;-61
2023/05/14 03:05:09;;;;;;;10.05;8.35;;;13.60;87.90;;;;;;5032489;28;20607;-62
2023/05/14 03:07:35;;;;;;;10.82;8.90;;;13.60;87.90;;;;;;5032910;28;20352;-62
2023/05/14 03:10:00;;;;;;;11.30;8.80;;;13.60;88.00;;;;;;5033286;28;20031;-61
2023/05/14 03:12:26;;;;;;;11.13;9.60;;;13.60;87.80;;;;;;5031931;28;20040;-61
2023/05/14 03:14:52;;;;;;;12.02;9.82;;;13.70;87.80;;;;;;5032894;28;20065;-61
2023/05/14 03:17:17;;;;;;;12.18;9.98;;;13.80;87.80;;;;;;5035377;28;20064;-61
2023/05/14 03:19:43;;;;;;;11.48;9.88;;;13.70;87.60;;;;;;5033673;28;20029;-61
2023/05/14 03:22:08;;;;;;;12.10;9.98;;;13.70;87.50;;;;;;5031810;28;20041;-61
2023/05/14 03:24:34;;;;;;;11.80;9.88;;;13.70;87.60;;;;;;5033685;28;20037;-62
2023/05/14 03:26:59;;;;;;;11.48;9.70;;;13.70;87.60;;;;;;5035027;28;20029;-61
2023/05/14 03:29:25;;;;;;;12.27;10.25;;;13.70;87.70;;;;;;5035023;28;20033;-62
2023/05/14 03:31:51;;;;;;;12.23;9.85;;;13.70;87.70;;;;;;5031393;28;20041;-62
2023/05/14 03:34:17;;;;;;;12.18;9.95;;;13.70;87.80;;;;;;5034029;28;20132;-62
2023/05/14 03:36:43;;;;;;;13.07;10.52;;;13.70;87.80;;;;;;5027498;28;20033;-62
2023/05/14 03:39:08;;;;;;;11.65;9.98;;;13.70;87.80;;;;;;5034954;28;20036;-62
2023/05/14 03:41:34;;;;;;;12.82;9.27;;;13.70;87.80;;;;;;5032748;28;20579;-61
2023/05/14 03:44:00;;;;;;;12.85;10.35;;;13.70;87.90;;;;;;5034362;28;20040;-61
2023/05/14 03:46:26;;;;;;;12.25;10.75;;;13.70;87.90;;;;;;5035062;28;20053;-61
2023/05/14 03:48:51;;;;;;;11.77;10.15;;;13.60;87.90;;;;;;5031816;28;20033;-62
2023/05/14 03:51:17;;;;;;;10.50;9.13;;;13.60;87.80;;;;;;5032394;28;20148;-61
2023/05/14 03:53:43;;;;;;;11.75;9.15;;;13.60;88.50;;;;;;5032901;28;20404;-62
2023/05/14 03:56:08;;;;;;;11.10;9.50;;;13.60;88.00;;;;;;5032113;28;20048;-61
2023/05/14 03:58:34;;;;;;;10.48;9.27;;;13.60;88.00;;;;;;5032128;28;20116;-61
2023/05/14 04:00:59;;;;;;;10.55;9.13;;;13.60;87.90;;;;;;5028721;28;20048;-61
2023/05/14 04:03:25;;;;;;;11.10;9.10;;;13.60;87.90;;;;;;5031291;28;20512;-61
2023/05/14 04:05:50;;;;;;;10.38;9.05;;;13.60;87.90;;;;;;5032250;28;20047;-60
2023/05/14 04:08:16;;;;;;;11.73;9.80;;;13.70;88.00;;;;;;5032396;28;20045;-61
2023/05/14 04:10:42;;;;;;;12.05;10.02;;;13.70;87.90;;;;;;5034295;28;20037;-62
2023/05/14 04:13:07;;;;;;;12.73;9.45;;;13.70;87.80;;;;;;5034693;28;20025;-62
2023/05/14 04:15:34;;;;;;;10.88;9.60;;;13.70;87.80;;;;;;5036507;28;20167;-61
2023/05/14 04:18:00;;;;;;;12.25;10.05;;;13.70;87.80;;;;;;5034195;28;20099;-61
2023/05/14 04:20:26;;;;;;;12.60;10.25;;;13.60;87.70;;;;;;5033403;28;20493;-61
2023/05/14 04:22:52;;;;;;;13.18;10.70;;;13.60;87.80;;;;;;5032483;28;20575;-61
2023/05/14 04:25:18;;;;;;;12.73;10.77;;;13.60;87.80;;;;;;5037735;28;20067;-61
2023/05/14 04:27:43;;;;;;;11.40;9.93;;;13.50;87.80;;;;;;5033852;28;20053;-62
2023/05/14 04:30:09;;;;;;;13.82;10.65;;;13.60;88.00;;;;;;5036990;28;20033;-61
2023/05/14 04:32:35;;;;;;;12.15;10.13;;;13.50;88.10;;;;;;5037331;28;20049;-61
2023/05/14 04:35:01;;;;;;;11.68;9.80;;;13.50;88.20;;;;;;5034763;28;20029;-62
2023/05/14 04:37:26;;;;;;;11.85;10.55;;;13.40;88.30;;;;;;5035078;28;20037;-62
2023/05/14 04:39:52;;;;;;;15.43;10.32;;;13.40;88.40;;;;;;5037992;28;20044;-62
2023/05/14 04:42:17;;;;;;;15.10;11.18;;;13.40;88.50;;;;;;5036420;28;20473;-61
2023/05/14 04:44:43;;;;;;;12.77;10.93;;;13.40;88.60;;;;;;5036506;28;20033;-62
2023/05/14 04:47:08;;;;;;;12.63;10.88;;;13.40;88.60;;;;;;5034149;28;20258;-62
2023/05/14 04:49:34;;;;;;;13.02;10.60;;;13.30;88.60;;;;;;5033759;28;20170;-60
2023/05/14 04:52:00;;;;;;;12.43;10.45;;;13.30;88.70;;;;;;5035894;28;20086;-61
2023/05/14 04:54:26;;;;;;;14.63;11.80;;;13.30;88.80;;;;;;5036594;28;20048;-61
2023/05/14 04:56:51;;;;;;;15.75;11.23;;;13.20;88.90;;;;;;5033523;28;20037;-59
2023/05/14 04:59:17;;;;;;;13.27;10.95;;;13.20;89.00;;;;;;5034702;28;20217;-62
2023/05/14 05:01:43;;;;;;;18.52;11.75;;;13.20;89.20;;;;;;5035058;28;20040;-61
2023/05/14 05:04:09;;;;;;;12.52;10.70;;;13.20;89.30;;;;;;5035242;28;20033;-61
2023/05/14 05:06:35;;;;;;;13.10;10.95;;;13.20;89.30;;;;;;5032044;28;20040;-61
2023/05/14 05:09:00;;;;;;;12.40;10.35;;;13.20;89.40;;;;;;5031753;28;20045;-61
2023/05/14 05:11:26;;;;;;;13.48;11.48;;;13.20;89.50;;;;;;5032422;28;20500;-61
2023/05/14 05:13:51;;;;;;;13.52;11.15;;;13.20;89.70;;;;;;5031962;28;20072;-62
2023/05/14 05:16:17;;;;;;;13.15;11.18;;;13.10;89.60;;;;;;5037939;28;20040;-62
2023/05/14 05:18:44;;;;;;;14.05;11.05;;;13.20;89.60;;;;;;5032074;28;20036;-61
2023/05/14 05:21:10;;;;;;;15.27;12.32;;;13.20;89.70;;;;;;5032764;28;20049;-62
2023/05/14 05:23:35;;;;;;;15.15;11.95;;;13.20;89.70;;;;;;5030543;28;20345;-62
2023/05/14 05:26:01;;;;;;;13.45;11.50;;;13.20;89.70;;;;;;5032521;28;20033;-61
2023/05/14 05:28:26;;;;;;;13.23;10.82;;;13.10;89.50;;;;;;5031052;28;20033;-60
2023/05/14 05:30:52;;;;;;;16.55;12.18;;;13.10;89.60;;;;;;5030793;28;20056;-62
2023/05/14 05:33:18;;;;;;;15.98;12.52;;;13.10;89.70;;;;;;5035464;28;20276;-61
2023/05/14 05:35:44;;;;;;;16.65;12.57;;;13.10;89.60;;;;;;5039061;28;20028;-62
2023/05/14 05:38:09;;;;;;;14.60;12.05;;;13.20;89.50;;;;;;5039986;28;20025;-60
2023/05/14 05:40:35;;;;;;;16.20;12.48;;;13.10;89.50;;;;;;5038893;28;20060;-62
2023/05/14 05:43:01;;;;;;;16.98;13.00;;;13.10;89.50;;;;;;5039211;28;20029;-60
2023/05/14 05:45:26;;;;;;;16.65;13.10;;;13.10;89.50;;;;;;5037364;28;20080;-62
2023/05/14 05:47:52;;;;;;;14.38;12.32;;;13.10;89.50;;;;;;5039334;28;20029;-62
2023/05/14 05:50:17;;;;;;;16.60;13.30;;;13.10;89.30;;;;;;5039657;28;20128;-61
2023/05/14 05:52:43;;;;;;;14.65;12.63;;;13.10;89.30;;;;;;5037845;28;20508;-60
2023/05/14 05:55:09;;;;;;;15.65;12.57;;;13.20;89.30;;;;;;5039008;28;20102;-62
2023/05/14 05:57:34;;;;;;;16.25;12.13;;;13.10;90.00;;;;;;5037863;28;20514;-62
2023/05/14 06:00:03;;;;;;;13.85;11.77;;;13.10;89.30;;;;;;5030814;28;20029;-61
2023/05/14 06:02:28;;;;;;;16.83;13.05;;;13.10;89.40;;;;;;5031106;28;20521;-61
2023/05/14 06:04:54;;;;;;;16.67;13.20;;;13.10;89.30;;;;;;5031955;28;20124;-61
2023/05/14 06:07:19;;;;;;;16.27;13.43;;;13.20;89.40;;;;;;5032030;28;20072;-61
2023/05/14 06:09:45;;;;;;;14.77;12.43;;;13.20;89.30;;;;;;5031106;28;20618;-61
2023/05/14 06:12:11;;;;;;;15.30;12.70;;;13.20;89.30;;;;;;5031104;28;20041;-60
2023/05/14 06:14:36;;;;;;;16.13;12.82;;;13.20;89.30;;;;;;5030646;28;20496;-61
2023/05/14 06:17:02;;;;;;;18.73;12.85;;;13.20;89.20;;;;;;5031274;28;20381;-61
2023/05/14 06:19:27;;;;;;;14.50;12.23;;;13.20;89.20;;;;;;5033675;28;20171;-62
2023/05/14 06:21:53;;;;;;;14.43;12.57;;;13.20;89.20;;;;;;5030092;28;20028;-60
2023/05/14 06:24:19;;;;;;;14.65;12.00;;;13.30;89.10;;;;;;5033213;28;20116;-62
2023/05/14 06:26:44;;;;;;;15.02;11.95;;;13.30;89.10;;;;;;5033660;28;20028;-62
2023/05/14 06:29:10;;;;;;;16.65;12.70;;;13.30;88.90;;;;;;5032133;28;20199;-61
2023/05/14 06:31:36;;;;;;;14.13;11.85;;;13.40;88.80;;;;;;5032573;28;20045;-61
2023/05/14 06:34:01;;;;;;;15.95;12.63;;;13.40;88.80;;;;;;5034873;28;20060;-61
2023/05/14 06:36:27;;;;;;;16.42;12.85;;;13.40;88.60;;;;;;5028565;28;20816;-61
2023/05/14 06:38:52;;;;;;;13.30;11.68;;;13.50;88.60;;;;;;5035661;28;20389;-62
2023/05/14 06:41:18;;;;;;;15.57;12.88;;;13.50;88.50;;;;;;5035318;28;20545;-60
2023/05/14 06:43:44;;;;;;;14.65;12.27;;;13.50;88.50;;;;;;5034590;28;20047;-61
2023/05/14 06:46:09;;;;;;;16.40;11.98;;;13.50;88.30;;;;;;5035443;28;20040;-61
2023/05/14 06:48:35;;;;;;;14.82;12.43;;;13.50;88.30;;;;;;5033297;28;20520;-61
2023/05/14 06:51:02;;;;;;;15.43;12.07;;;13.50;88.30;;;;;;5033836;28;20037;-61
2023/05/14 06:53:27;;;;;;;14.05;12.20;;;13.50;88.30;;;;;;5033962;28;20037;-60
2023/05/14 06:55:53;;;;;;;14.48;12.02;;;13.60;88.30;;;;;;5036377;28;20114;-61
2023/05/14 06:58:18;;;;;;;15.70;12.88;;;13.50;88.30;;;;;;5037599;28;20594;-62
2023/05/14 07:00:44;;;;;;;13.85;11.77;;;13.60;88.20;;;;;;5035936;28;20040;-61
2023/05/14 07:03:09;;;;;;;13.45;11.70;;;13.50;88.20;;;;;;5030313;28;20420;-61
2023/05/14 07:05:35;;;;;;;13.77;11.55;;;13.60;88.40;;;;;;5034543;28;20047;-62
2023/05/14 07:08:01;;;;;;;12.45;11.15;;;13.60;88.40;;;;;;5031881;28;20040;-61
2023/05/14 07:10:26;;;;;;;13.10;11.07;;;13.60;88.40;;;;;;5035826;28;20033;-61
2023/05/14 07:12:52;;;;;;;13.07;11.18;;;13.60;88.40;;;;;;5033925;28;20055;-60
2023/05/14 07:15:17;;;;;;;12.75;11.00;;;13.60;88.30;;;;;;5037255;28;20071;-60
2023/05/14 07:17:43;;;;;;;13.57;11.25;;;13.70;88.20;;;;;;5030551;28;20064;-61
2023/05/14 07:20:09;;;;;;;12.48;10.80;;;13.70;87.90;;;;;;5033748;28;20033;-62
2023/05/14 07:22:35;;;;;;;13.35;10.88;;;13.70;87.70;;;;;;5033815;28;20127;-62
2023/05/14 07:25:01;;;;;;;13.35;10.93;;;13.80;87.80;;;;;;5030625;28;20029;-61
2023/05/14 07:27:27;;;;;;;11.98;10.27;;;13.80;87.60;;;;;;5032382;28;20044;-62
2023/05/14 07:29:52;;;;;;;10.88;9.75;;;13.80;87.30;;;;;;5032645;28;20443;-61
2023/05/14 07:32:18;;;;;;;11.27;10.10;;;13.80;87.30;;;;;;5034355;28;20033;-61
2023/05/14 07:34:43;;;;;;;12.90;10.25;;;13.90;87.30;;;;;;5029392;28;20033;-60
2023/05/14 07:37:09;;;;;;;11.77;10.00;;;13.90;87.20;;;;;;5030414;28;20053;-60
2023/05/14 07:39:35;;;;;;;11.50;9.90;;;14.00;87.10;;;;;;5034145;28;20091;-61
2023/05/14 07:42:00;;;;;;;11.35;10.18;;;14.00;87.10;;;;;;5032176;28;20033;-61
2023/05/14 07:44:26;;;;;;;12.10;10.65;;;14.00;86.90;;;;;;5032916;28;20033;-61
2023/05/14 07:46:51;;;;;;;12.73;11.27;;;14.00;86.50;;;;;;5034779;28;20127;-62
2023/05/14 07:49:17;;;;;;;11.60;10.40;;;14.00;86.40;;;;;;5033769;28;20065;-62
2023/05/14 07:51:43;;;;;;;12.45;11.15;;;14.00;86.40;;;;;;5032789;28;20064;-61
2023/05/14 07:54:08;;;;;;;12.25;10.98;;;14.10;86.40;;;;;;5031625;28;20041;-61
2023/05/14 07:56:34;;;;;;;12.55;11.23;;;14.10;86.00;;;;;;5032969;28;20114;-62
2023/05/14 07:58:59;;;;;;;12.38;10.77;;;14.10;85.90;;;;;;5033796;28;20654;-62
2023/05/14 08:01:25;;;;;;;15.65;11.23;;;14.10;86.10;;;;;;5031012;28;20096;-62
2023/05/14 08:03:50;;;;;;;12.00;10.80;;;14.10;86.10;;;;;;5034219;28;20400;-62
2023/05/14 08:06:16;;;;;;;11.68;10.18;;;14.10;85.80;;;;;;5033056;28;20042;-62
2023/05/14 08:08:42;;;;;;;13.00;10.82;;;14.10;85.90;;;;;;5031033;28;20460;-62
2023/05/14 08:11:07;;;;;;;12.35;10.85;;;14.10;85.50;;;;;;5032070;28;20037;-61
2023/05/14 08:13:33;;;;;;;12.25;10.55;;;14.20;85.40;;;;;;5030994;28;20135;-61
2023/05/14 08:15:59;;;;;;;12.20;10.00;;;14.20;85.50;;;;;;5030261;28;20025;-62
2023/05/14 08:18:24;;;;;;;11.75;9.88;;;14.20;85.40;;;;;;5030644;28;20092;-61
2023/05/14 08:20:50;;;;;;;11.73;9.68;;;14.20;85.40;;;;;;5032011;28;20037;-61
2023/05/14 08:23:16;;;;;;;10.57;9.45;;;14.20;85.50;;;;;;5031070;28;20722;-61
2023/05/14 08:25:41;;;;;;;11.32;9.25;;;14.20;85.50;;;;;;5028862;28;20561;-62
2023/05/14 08:28:07;;;;;;;11.00;9.20;;;14.30;85.50;;;;;;5035246;28;20639;-61
2023/05/14 08:30:33;;;;;;;11.80;9.32;;;14.30;85.40;;;;;;5032557;28;20033;-61
2023/05/14 08:32:58;;;;;;;10.65;9.15;;;14.30;85.30;;;;;;5033138;28;20033;-61
2023/05/14 08:35:24;;;;;;;9.68;8.68;;;14.40;85.00;;;;;;5031193;28;20037;-61
2023/05/14 08:37:51;;;;;;;10.93;8.38;;;14.30;85.00;;;;;;5033479;28;20254;-61
2023/05/14 08:40:17;;;;;;;10.20;8.80;;;14.40;84.90;;;;;;5030418;28;20133;-61
2023/05/14 08:42:43;;;;;;;8.98;8.05;;;14.40;84.50;;;;;;5030080;28;20332;-62
2023/05/14 08:45:09;;;;;;;10.02;7.80;;;14.40;84.20;;;;;;5032643;28;20041;-61
2023/05/14 08:47:36;;;;;;;9.57;8.40;;;14.40;84.00;;;;;;5032046;28;20033;-61
2023/05/14 08:50:03;;;;;;;9.30;8.27;;;14.50;84.00;;;;;;5031533;28;20418;-60
2023/05/14 08:52:29;;;;;;;9.80;8.80;;;14.50;83.80;;;;;;5037262;28;20125;-62
2023/05/14 08:54:59;;;;;;;12.00;9.43;;;14.50;82.60;;;;;;5031513;28;20032;-62
2023/05/14 08:57:25;;;;;;;9.23;8.00;;;14.40;82.50;;;;;;5037788;28;20033;-62
2023/05/14 08:59:52;;;;;;;8.68;7.80;;;14.40;82.60;;;;;;5040661;28;20041;-63
2023/05/14 09:02:23;;;;;;;8.23;7.22;;;14.40;83.10;;;;;;5039704;28;20128;-62
2023/05/14 09:04:52;;;;;;;8.63;7.72;;;14.40;83.20;;;;;;5034100;28;20128;-62
2023/05/14 09:07:18;;;;;;;9.35;7.32;;;14.40;83.40;;;;;;5036403;28;20509;-62
2023/05/14 09:09:44;;;;;;;7.65;6.95;;;14.40;83.60;;;;;;5037171;28;20037;-62
2023/05/14 09:12:10;;;;;;;7.20;6.47;;;14.40;83.40;;;;;;5035544;28;20528;-62
2023/05/14 09:14:35;;;;;;;8.35;7.10;;;14.40;83.30;;;;;;5040277;28;20041;-62
2023/05/14 09:17:02;;;;;;;7.38;6.68;;;14.50;83.30;;;;;;5040370;28;20108;-62
2023/05/14 09:19:27;;;;;;;7.45;6.65;;;14.50;83.20;;;;;;5039236;28;20091;-62
2023/05/14 09:21:57;;;;;;;7.68;6.43;;;14.50;82.90;;;;;;5038542;28;20040;-62
2023/05/14 09:24:25;;;;;;;6.97;6.28;;;14.50;82.70;;;;;;5039512;28;20091;-62
2023/05/14 09:26:55;;;;;;;8.63;7.45;;;14.40;83.00;;;;;;5039226;28;20043;-62
2023/05/14 09:29:24;;;;;;;8.52;7.63;;;14.40;82.60;;;;;;5039970;28;20045;-62
2023/05/14 09:31:51;;;;;;;10.38;8.45;;;14.50;82.80;;;;;;5039433;28;20030;-62
2023/05/14 09:34:31;;;;;;;8.55;7.65;;;14.40;82.90;;;;;;5039716;28;20101;-62
2023/05/14 09:37:00;;;;;;;18.10;12.27;;;14.40;82.60;;;;;;5035147;28;20041;-61
2023/05/14 09:39:26;;;;;;;15.32;12.25;;;14.40;82.80;;;;;;5038715;28;20037;-62
2023/05/14 09:41:53;;;;;;;9.55;8.55;;;14.50;82.70;;;;;;5040107;28;20041;-61
2023/05/14 09:44:19;;;;;;;10.68;8.52;;;14.50;83.40;;;;;;5038393;28;20041;-62
2023/05/14 09:46:45;;;;;;;9.35;8.32;;;14.50;82.60;;;;;;5037810;28;20045;-61
2023/05/14 09:49:11;;;;;;;8.63;7.47;;;14.50;82.60;;;;;;5039718;28;20075;-62
2023/05/14 09:51:37;;;;;;;10.57;8.20;;;14.60;82.40;;;;;;5035603;28;20040;-62
2023/05/14 09:54:07;;;;;;;9.23;8.27;;;14.60;82.20;;;;;;5035794;28;20032;-62
2023/05/14 09:56:34;;;;;;;7.90;7.10;;;14.60;82.00;;;;;;5037222;28;20040;-62
2023/05/14 09:59:00;;;;;;;8.23;7.25;;;14.60;82.20;;;;;;5037961;28;20035;-60
2023/05/14 10:01:28;;;;;;;8.13;7.25;;;14.60;82.20;;;;;;5039848;28;20037;-60
2023/05/14 10:03:54;;;;;;;7.45;6.65;;;14.60;81.90;;;;;;5040536;28;20067;-62
2023/05/14 10:06:26;;;;;;;7.80;6.57;;;14.60;82.00;;;;;;5038340;28;20064;-61
2023/05/14 10:08:55;;;;;;;7.68;6.88;;;14.60;81.90;;;;;;5039818;28;20048;-61
2023/05/14 10:11:24;;;;;;;8.02;6.85;;;14.70;82.00;;;;;;5038314;28;20037;-62
2023/05/14 10:14:07;;;;;;;7.57;6.68;;;14.70;81.90;;;;;;5038572;28;20034;-62
2023/05/14 10:16:36;;;;;;;8.27;6.30;;;14.70;81.30;;;;;;5044896;28;20456;-60
2023/05/14 10:19:23;;;;;;;8.07;6.57;;;14.70;81.50;;;;;;5037576;28;20112;-61
2023/05/14 10:21:55;;;;;;;6.90;6.20;;;14.70;80.90;;;;;;5039047;28;20536;-61
2023/05/14 10:24:22;;;;;;;8.75;7.05;;;14.70;81.20;;;;;;5038718;28;20883;-60
2023/05/14 10:26:47;;;;;;;7.72;6.93;;;14.80;81.50;;;;;;5038791;28;20041;-61
2023/05/14 10:29:13;;;;;;;7.47;6.68;;;14.80;82.20;;;;;;5037721;28;20514;-62
2023/05/14 10:32:08;;;;;;;7.60;6.80;;;14.80;80.70;;;;;;5035917;28;20123;-62
2023/05/14 10:34:37;;;;;;;8.52;6.68;;;14.80;80.90;;;;;;5033010;28;20067;-62
2023/05/14 10:37:10;;;;;;;8.98;7.50;;;14.90;81.30;;;;;;5037000;28;20485;-62
2023/05/14 10:39:46;;;;;;;8.15;7.35;;;14.90;81.10;;;;;;5036879;28;20041;-62
2023/05/14 10:42:24;;;;;;;7.65;6.85;;;14.90;80.70;;;;;;5034005;28;20137;-62
2023/05/14 10:44:57;;;;;;;8.23;7.38;;;14.90;80.90;;;;;;5036325;28;20529;-62
2023/05/14 10:47:26;;;;;;;7.47;6.78;;;15.00;81.10;;;;;;5037197;28;20045;-60
2023/05/14 10:49:54;;;;;;;8.02;7.15;;;15.00;81.30;;;;;;5037417;28;20036;-61
2023/05/14 10:52:21;;;;;;;7.80;7.10;;;15.10;81.50;;;;;;5035229;28;20044;-62
2023/05/14 10:54:55;;;;;;;7.45;6.75;;;15.10;81.30;;;;;;5037466;28;20033;-61
2023/05/14 10:57:22;;;;;;;7.43;6.72;;;15.30;81.50;;;;;;5037039;28;20064;-62
2023/05/14 10:59:52;;;;;;;7.22;6.53;;;15.30;81.70;;;;;;5036787;28;20049;-62
2023/05/14 11:02:36;;;;;;;7.15;6.47;;;15.50;81.40;;;;;;5038247;28;20042;-62
2023/05/14 11:05:04;;;;;;;7.15;6.50;;;15.60;80.40;;;;;;5022470;28;20040;-62
2023/05/14 11:07:33;;;;;;;6.60;6.00;;;15.70;80.60;;;;;;5037150;28;20511;-62
2023/05/14 11:10:01;;;;;;;6.13;5.53;;;15.80;80.50;;;;;;5036539;28;20041;-62
2023/05/14 11:12:27;;;;;;;5.72;5.15;;;15.90;80.30;;;;;;5034935;28;20535;-62
2023/05/14 11:14:55;;;;;;;5.57;5.07;;;16.00;79.80;;;;;;5037709;28;20215;-61
2023/05/14 11:17:21;;;;;;;5.25;4.75;;;16.00;79.10;;;;;;5034842;28;20033;-61
2023/05/14 11:19:46;;;;;;;5.03;4.63;;;16.10;78.80;;;;;;5032769;28;20437;-62
2023/05/14 11:22:13;;;;;;;5.03;4.63;;;16.10;78.40;;;;;;5037984;28;20067;-62
2023/05/14 11:24:39;;;;;;;5.03;4.53;;;16.20;78.20;;;;;;5038814;28;20037;-62
2023/05/14 11:27:08;;;;;;;5.18;4.78;;;16.20;78.20;;;;;;5032448;28;20621;-62
2023/05/14 11:29:37;;;;;;;5.80;5.15;;;16.30;77.80;;;;;;5035507;28;20421;-62
2023/05/14 11:32:06;;;;;;;5.05;4.65;;;16.30;77.70;;;;;;5035690;28;20044;-62
2023/05/14 11:34:33;;;;;;;5.38;4.97;;;16.30;77.00;;;;;;5033964;28;20036;-62
2023/05/14 11:37:08;;;;;;;5.25;4.75;;;16.40;77.50;;;;;;5034312;28;20044;-62
2023/05/14 11:39:37;;;;;;;5.10;4.57;;;16.40;77.00;;;;;;5035868;28;20036;-62
2023/05/14 11:42:08;;;;;;;5.07;4.68;;;16.40;77.30;;;;;;5034848;28;20029;-62
2023/05/14 11:44:34;;;;;;;4.50;4.10;;;16.50;77.10;;;;;;5033585;28;20045;-62
2023/05/14 11:47:03;;;;;;;5.07;4.57;;;16.50;76.80;;;;;;5037358;28;20033;-62
2023/05/14 11:49:30;;;;;;;4.75;4.35;;;16.50;76.40;;;;;;5035427;28;20052;-62
2023/05/14 11:52:00;;;;;;;5.20;4.18;;;16.50;76.30;;;;;;5035854;28;20064;-62
2023/05/14 11:54:30;;;;;;;4.88;4.40;;;16.60;76.30;;;;;;5036754;28;20037;-62
2023/05/14 11:56:57;;;;;;;5.78;5.10;;;16.60;76.00;;;;;;5036650;28;20584;-62
2023/05/14 11:59:24;;;;;;;5.53;5.10;;;16.60;74.90;;;;;;5035322;28;20496;-62
2023/05/14 12:01:51;;;;;;;6.18;5.68;;;16.50;75.30;;;;;;5036239;28;20060;-62
2023/05/14 12:04:21;;;;;;;5.60;5.10;;;16.50;75.60;;;;;;5037062;28;20037;-62
2023/05/14 12:06:48;;;;;;;5.68;5.18;;;16.40;76.10;;;;;;5036455;28;20041;-62
2023/05/14 12:09:18;;;;;;;4.95;4.40;;;16.40;76.50;;;;;;5037121;28;20067;-62
2023/05/14 12:11:45;;;;;;;4.50;4.10;;;16.50;76.70;;;;;;5037907;28;20026;-62
2023/05/14 12:14:19;;;;;;;4.78;4.25;;;16.50;76.80;;;;;;5034179;28;20087;-62
2023/05/14 12:16:45;;;;;;;5.30;4.53;;;16.60;76.40;;;;;;5035865;28;20029;-62
2023/05/14 12:19:13;;;;;;;4.50;4.10;;;16.70;75.50;;;;;;5036636;28;20443;-62
2023/05/14 12:21:39;;;;;;;4.18;3.78;;;16.70;75.40;;;;;;5038411;28;20046;-62
2023/05/14 12:24:12;;;;;;;5.50;4.28;;;16.80;75.40;;;;;;5035995;28;20040;-62
2023/05/14 12:26:38;;;;;;;4.28;3.88;;;16.80;74.60;;;;;;5036256;28;20140;-62
2023/05/14 12:29:05;;;;;;;3.70;3.40;;;16.80;75.30;;;;;;5037463;28;20403;-62
2023/05/14 12:31:35;;;;;;;4.13;3.72;;;16.90;75.60;;;;;;5036345;28;20045;-61
2023/05/14 12:34:02;;;;;;;3.88;3.58;;;17.00;75.00;;;;;;5037806;28;20028;-61
2023/05/14 12:36:28;;;;;;;3.88;3.58;;;17.10;74.70;;;;;;5040518;28;20029;-61